createdAt,value
2018-07-02T00:00:58.460Z,95.70
2018-07-02T00:03:27.012Z,95.60
2018-07-02T00:06:06.703Z,96.10
2018-07-02T00:08:35.178Z,96.50
2018-07-02T00:11:03.610Z,96.60
2018-07-02T00:13:31.968Z,96.90
2018-07-02T00:16:00.373Z,97.00
2018-07-02T00:18:28.747Z,97.00
2018-07-02T00:20:57.105Z,97.00
2018-07-02T00:23:25.485Z,97.00
2018-07-02T00:25:53.939Z,97.00
2018-07-02T00:28:22.307Z,97.00
2018-07-02T00:30:50.680Z,97.00
2018-07-02T00:33:19.110Z,97.00
2018-07-02T00:35:47.442Z,97.00
2018-07-02T00:38:15.897Z,97.00
2018-07-02T00:40:44.290Z,97.00
2018-07-02T00:43:12.799Z,97.00
2018-07-02T00:45:41.824Z,97.00
2018-07-02T00:48:10.188Z,97.00
2018-07-02T00:50:38.559Z,97.00
2018-07-02T00:53:06.977Z,97.00
2018-07-02T00:55:35.370Z,97.00
2018-07-02T00:58:03.784Z,97.00
2018-07-02T01:00:32.176Z,97.00
2018-07-02T01:03:00.559Z,97.00
2018-07-02T01:05:28.938Z,97.00
2018-07-02T01:07:57.320Z,97.00
2018-07-02T01:10:25.738Z,97.00
2018-07-02T01:12:54.108Z,97.00
2018-07-02T01:15:22.468Z,97.00
2018-07-02T01:17:50.910Z,97.00
2018-07-02T01:20:19.322Z,97.00
2018-07-02T01:22:47.716Z,97.00
2018-07-02T01:25:16.183Z,97.00
2018-07-02T01:27:44.579Z,97.00
2018-07-02T01:30:13.002Z,97.00
2018-07-02T01:32:41.404Z,97.00
2018-07-02T01:35:09.786Z,97.00
2018-07-02T01:40:06.331Z,97.00
2018-07-02T01:42:34.715Z,97.00
2018-07-02T01:45:03.122Z,97.00
2018-07-02T01:47:31.483Z,97.00
2018-07-02T01:49:59.852Z,97.00
2018-07-02T01:52:28.227Z,97.00
2018-07-02T01:54:56.746Z,97.00
2018-07-02T01:57:25.111Z,97.00
2018-07-02T01:59:53.483Z,97.00
2018-07-02T02:02:21.891Z,97.00
2018-07-02T02:04:50.282Z,97.00
2018-07-02T02:07:18.674Z,97.00
2018-07-02T02:09:47.016Z,97.00
2018-07-02T02:12:15.391Z,97.00
2018-07-02T02:14:43.788Z,97.00
2018-07-02T02:17:12.224Z,97.00
2018-07-02T02:19:40.640Z,97.00
2018-07-02T02:22:09.003Z,97.00
2018-07-02T02:24:37.418Z,97.00
2018-07-02T02:27:05.924Z,97.00
2018-07-02T02:29:34.311Z,97.00
2018-07-02T02:32:02.700Z,97.00
2018-07-02T02:34:31.126Z,97.00
2018-07-02T02:36:59.514Z,97.00
2018-07-02T02:39:27.906Z,97.00
2018-07-02T02:41:56.324Z,97.00
2018-07-02T02:44:24.712Z,97.00
2018-07-02T02:46:53.114Z,97.00
2018-07-02T02:49:21.499Z,97.00
2018-07-02T02:51:49.887Z,97.00
2018-07-02T02:54:18.250Z,97.00
2018-07-02T02:56:46.617Z,97.00
2018-07-02T02:59:14.996Z,97.00
2018-07-02T03:01:43.424Z,97.00
2018-07-02T03:04:11.852Z,97.00
2018-07-02T03:06:40.265Z,97.00
2018-07-02T03:09:09.391Z,97.00
2018-07-02T03:11:37.771Z,97.00
2018-07-02T03:14:06.137Z,97.00
2018-07-02T03:16:34.502Z,97.00
2018-07-02T03:19:02.890Z,97.00
2018-07-02T03:21:31.273Z,97.00
2018-07-02T03:23:59.616Z,97.00
2018-07-02T03:26:28.020Z,97.00
2018-07-02T03:28:56.388Z,97.00
2018-07-02T03:31:24.792Z,97.00
2018-07-02T03:33:53.145Z,97.00
2018-07-02T03:36:21.507Z,97.00
2018-07-02T03:38:49.892Z,97.00
2018-07-02T03:41:18.266Z,97.00
2018-07-02T03:43:46.683Z,97.00
2018-07-02T03:48:43.179Z,97.00
2018-07-02T03:51:11.562Z,97.00
2018-07-02T03:53:39.950Z,97.00
2018-07-02T03:56:08.336Z,97.00
2018-07-02T03:58:36.711Z,97.00
2018-07-02T04:01:05.295Z,97.00
2018-07-02T04:03:33.677Z,97.00
2018-07-02T04:06:02.065Z,97.00
2018-07-02T04:08:30.454Z,97.00
2018-07-02T04:10:58.868Z,97.00
2018-07-02T04:13:27.258Z,97.00
2018-07-02T04:15:55.640Z,97.00
2018-07-02T04:18:23.995Z,97.00
2018-07-02T04:20:52.407Z,97.00
2018-07-02T04:23:20.811Z,97.00
2018-07-02T04:25:49.244Z,97.00
2018-07-02T04:28:17.562Z,97.00
2018-07-02T04:30:45.927Z,97.00
2018-07-02T04:33:14.260Z,97.00
2018-07-02T04:35:42.617Z,97.00
2018-07-02T04:38:11.009Z,97.00
2018-07-02T04:40:39.475Z,97.00
2018-07-02T04:43:07.871Z,97.00
2018-07-02T04:45:36.243Z,97.00
2018-07-02T04:48:04.749Z,97.00
2018-07-02T04:50:33.134Z,97.00
2018-07-02T04:53:01.574Z,97.00
2018-07-02T04:55:30.208Z,97.00
2018-07-02T04:57:58.580Z,97.00
2018-07-02T05:00:26.994Z,97.00
2018-07-02T05:02:55.382Z,97.00
2018-07-02T05:05:23.902Z,97.00
2018-07-02T05:07:52.242Z,97.00
2018-07-02T05:10:20.662Z,96.70
2018-07-02T05:12:49.065Z,95.60
2018-07-02T05:15:17.395Z,94.60
2018-07-02T05:17:46.003Z,93.70
2018-07-02T05:20:14.406Z,92.90
2018-07-02T05:22:42.744Z,92.10
2018-07-02T05:25:11.232Z,91.30
2018-07-02T05:27:39.576Z,90.60
2018-07-02T05:30:07.954Z,90.00
2018-07-02T05:32:36.295Z,88.90
2018-07-02T05:35:04.658Z,88.40
2018-07-02T05:37:32.995Z,87.90
2018-07-02T05:40:01.404Z,87.40
2018-07-02T05:42:29.780Z,86.80
2018-07-02T05:44:58.118Z,86.00
2018-07-02T05:47:26.472Z,84.50
2018-07-02T05:49:54.816Z,84.10
2018-07-02T05:52:23.160Z,83.30
2018-07-02T05:54:51.540Z,82.40
2018-07-02T05:57:19.912Z,82.80
2018-07-02T05:59:48.258Z,81.80
2018-07-02T06:02:16.607Z,81.20
2018-07-02T06:04:44.997Z,80.60
2018-07-02T06:07:13.441Z,79.80
2018-07-02T06:09:41.834Z,79.10
2018-07-02T06:12:10.231Z,79.20
2018-07-02T06:14:38.578Z,79.30
2018-07-02T06:17:06.926Z,79.90
2018-07-02T06:19:35.287Z,79.10
2018-07-02T06:22:03.636Z,78.80
2018-07-02T06:24:32.005Z,78.50
2018-07-02T06:27:00.332Z,78.10
2018-07-02T06:29:28.695Z,77.20
2018-07-02T06:31:57.084Z,77.20
2018-07-02T06:34:25.546Z,75.90
2018-07-02T06:36:53.884Z,75.50
2018-07-02T06:39:22.221Z,75.10
2018-07-02T06:41:50.559Z,75.20
2018-07-02T06:44:18.937Z,74.50
2018-07-02T06:46:47.322Z,74.40
2018-07-02T06:49:15.691Z,74.10
2018-07-02T06:51:44.020Z,73.80
2018-07-02T06:56:40.477Z,73.40
2018-07-02T06:59:08.800Z,73.70
2018-07-02T07:01:37.130Z,73.80
2018-07-02T07:04:05.518Z,73.20
2018-07-02T07:06:33.899Z,72.10
2018-07-02T07:09:02.243Z,71.70
2018-07-02T07:11:30.611Z,71.00
2018-07-02T07:13:59.000Z,71.10
2018-07-02T07:16:27.321Z,71.20
2018-07-02T07:18:55.663Z,71.30
2018-07-02T07:21:24.012Z,71.20
2018-07-02T07:23:52.365Z,70.90
2018-07-02T07:26:20.735Z,71.00
2018-07-02T07:28:49.040Z,71.00
2018-07-02T07:31:17.417Z,70.90
2018-07-02T07:33:45.753Z,71.10
2018-07-02T07:36:14.140Z,70.80
2018-07-02T07:38:42.534Z,70.40
2018-07-02T07:41:10.849Z,69.80
2018-07-02T07:43:39.201Z,68.80
2018-07-02T07:46:07.574Z,68.80
2018-07-02T07:48:35.995Z,69.00
2018-07-02T07:51:04.370Z,68.50
2018-07-02T07:53:32.773Z,68.30
2018-07-02T07:56:01.121Z,67.90
2018-07-02T07:58:29.484Z,67.20
2018-07-02T08:00:57.831Z,67.30
2018-07-02T08:03:26.265Z,67.40
2018-07-02T08:08:22.674Z,66.30
2018-07-02T08:10:51.044Z,65.90
2018-07-02T08:13:19.669Z,65.40
2018-07-02T08:15:48.058Z,65.20
2018-07-02T08:18:16.702Z,65.80
2018-07-02T08:20:45.107Z,64.90
2018-07-02T08:23:13.517Z,64.30
2018-07-02T08:25:41.942Z,63.90
2018-07-02T08:28:10.391Z,63.40
2018-07-02T08:30:38.747Z,63.10
2018-07-02T08:33:07.239Z,63.40
2018-07-02T08:35:35.676Z,62.90
2018-07-02T08:38:04.197Z,62.70
2018-07-02T08:40:32.643Z,62.30
2018-07-02T08:43:01.026Z,62.20
2018-07-02T08:45:31.502Z,61.90
2018-07-02T08:48:00.476Z,62.00
2018-07-02T08:50:29.143Z,61.90
2018-07-02T08:52:57.558Z,60.60
2018-07-02T08:55:25.972Z,61.50
2018-07-02T08:57:54.416Z,61.30
2018-07-02T09:00:22.783Z,60.70
2018-07-02T09:02:51.148Z,60.90
2018-07-02T09:05:19.609Z,61.10
2018-07-02T09:07:48.025Z,60.70
2018-07-02T09:10:16.464Z,60.50
2018-07-02T09:12:44.827Z,60.70
2018-07-02T09:15:13.299Z,60.10
2018-07-02T09:17:41.701Z,59.50
2018-07-02T09:20:10.131Z,58.70
2018-07-02T09:22:38.502Z,58.90
2018-07-02T09:25:06.876Z,59.00
2018-07-02T09:27:35.269Z,58.30
2018-07-02T09:30:03.726Z,57.70
2018-07-02T09:32:32.132Z,56.90
2018-07-02T09:35:00.487Z,56.30
2018-07-02T09:37:28.908Z,57.50
2018-07-02T09:39:57.296Z,58.20
2018-07-02T09:42:25.781Z,58.70
2018-07-02T09:44:54.159Z,59.50
2018-07-02T09:47:22.600Z,58.60
2018-07-02T09:49:51.034Z,58.50
2018-07-02T09:52:19.424Z,57.70
2018-07-02T09:54:47.937Z,57.90
2018-07-02T09:57:16.340Z,56.50
2018-07-02T09:59:44.798Z,56.50
2018-07-02T10:02:13.206Z,56.70
2018-07-02T10:04:41.586Z,57.80
2018-07-02T10:07:09.976Z,57.80
2018-07-02T10:09:38.365Z,56.90
2018-07-02T10:12:06.779Z,56.70
2018-07-02T10:14:35.180Z,56.70
2018-07-02T10:17:03.560Z,57.40
2018-07-02T10:19:31.979Z,58.20
2018-07-02T10:22:00.380Z,59.10
2018-07-02T10:24:28.755Z,58.10
2018-07-02T10:26:57.200Z,57.30
2018-07-02T10:29:25.643Z,57.40
2018-07-02T10:31:54.121Z,57.40
2018-07-02T10:34:22.496Z,57.70
2018-07-02T10:36:50.952Z,56.90
2018-07-02T10:39:19.381Z,56.60
2018-07-02T10:41:47.772Z,57.30
2018-07-02T10:46:44.631Z,57.60
2018-07-02T10:49:13.014Z,57.10
2018-07-02T10:51:41.394Z,56.70
2018-07-02T10:54:09.795Z,55.80
2018-07-02T10:56:38.161Z,55.60
2018-07-02T10:59:07.411Z,56.60
2018-07-02T11:01:35.775Z,55.80
2018-07-02T11:04:04.172Z,55.10
2018-07-02T11:06:32.587Z,54.90
2018-07-02T11:09:01.919Z,55.90
2018-07-02T11:11:30.308Z,55.90
2018-07-02T11:13:58.743Z,56.50
2018-07-02T11:16:27.116Z,56.60
2018-07-02T11:18:55.496Z,57.30
2018-07-02T11:23:51.966Z,56.50
2018-07-02T11:26:20.360Z,57.00
2018-07-02T11:28:48.722Z,57.30
2018-07-02T11:31:17.187Z,57.60
2018-07-02T11:33:45.760Z,56.70
2018-07-02T11:36:14.716Z,57.00
2018-07-02T11:38:43.180Z,56.10
2018-07-02T11:41:11.861Z,55.90
2018-07-02T11:43:40.224Z,55.00
2018-07-02T11:46:08.742Z,54.50
2018-07-02T11:48:37.094Z,55.00
2018-07-02T11:51:05.588Z,55.10
2018-07-02T11:53:34.047Z,55.20
2018-07-02T11:56:02.553Z,54.60
2018-07-02T11:58:31.025Z,54.60
2018-07-02T12:00:59.452Z,54.40
2018-07-02T12:03:27.835Z,54.70
2018-07-02T12:08:24.315Z,55.40
2018-07-02T12:10:53.267Z,55.50
2018-07-02T12:13:21.690Z,55.90
2018-07-02T12:15:50.081Z,55.60
2018-07-02T12:18:18.499Z,55.70
2018-07-02T12:20:46.922Z,55.20
2018-07-02T12:23:15.309Z,54.30
2018-07-02T12:25:43.666Z,53.90
2018-07-02T12:28:12.020Z,53.90
2018-07-02T12:30:40.396Z,53.80
2018-07-02T12:35:36.881Z,53.60
2018-07-02T12:38:05.324Z,52.70
2018-07-02T12:40:33.729Z,53.10
2018-07-02T12:43:02.095Z,54.10
2018-07-02T12:45:30.475Z,53.90
2018-07-02T12:47:58.803Z,52.20
2018-07-02T12:50:27.194Z,52.50
2018-07-02T12:52:55.607Z,52.00
2018-07-02T12:55:24.130Z,52.70
2018-07-02T12:57:52.529Z,53.60
2018-07-02T13:00:20.891Z,52.80
2018-07-02T13:02:49.316Z,52.60
2018-07-02T13:05:17.721Z,53.40
2018-07-02T13:07:46.113Z,54.00
2018-07-02T13:10:14.568Z,54.20
2018-07-02T13:12:42.939Z,53.60
2018-07-02T13:15:11.372Z,52.60
2018-07-02T13:17:39.751Z,52.80
2018-07-02T13:20:08.186Z,51.70
2018-07-02T13:22:36.567Z,51.30
2018-07-02T13:25:04.974Z,51.00
2018-07-02T13:27:33.343Z,51.00
2018-07-02T13:30:01.850Z,51.60
2018-07-02T13:32:30.115Z,50.90
2018-07-02T13:34:58.495Z,51.10
2018-07-02T13:37:26.948Z,51.40
2018-07-02T13:39:55.342Z,51.90
2018-07-02T13:42:23.739Z,51.60
2018-07-02T13:44:52.112Z,51.90
2018-07-02T13:47:20.486Z,51.10
2018-07-02T13:49:48.900Z,50.40
2018-07-02T13:52:17.276Z,50.20
2018-07-02T13:54:45.668Z,50.50
2018-07-02T13:57:13.998Z,50.60
2018-07-02T13:59:42.423Z,49.70
2018-07-02T14:02:10.828Z,49.30
2018-07-02T14:04:39.348Z,49.70
2018-07-02T14:07:07.754Z,49.60
2018-07-02T14:09:36.141Z,49.60
2018-07-02T14:12:04.579Z,49.90
2018-07-02T14:14:33.008Z,49.10
2018-07-02T14:17:01.389Z,49.20
2018-07-02T14:19:29.753Z,48.20
2018-07-02T14:21:58.099Z,48.90
2018-07-02T14:24:26.780Z,49.60
2018-07-02T14:26:55.239Z,48.40
2018-07-02T14:29:23.975Z,48.10
2018-07-02T14:31:52.382Z,47.90
2018-07-02T14:34:20.746Z,48.50
2018-07-02T14:36:49.143Z,47.50
2018-07-02T14:39:17.607Z,48.50
2018-07-02T14:41:45.981Z,48.80
2018-07-02T14:44:14.576Z,48.40
2018-07-02T14:46:42.948Z,47.70
2018-07-02T14:49:11.743Z,48.00
2018-07-02T14:51:40.301Z,48.40
2018-07-02T14:54:08.786Z,47.50
2018-07-02T14:56:37.280Z,48.10
2018-07-02T14:59:05.865Z,47.90
2018-07-02T15:01:34.328Z,47.60
2018-07-02T15:04:02.711Z,47.10
2018-07-02T15:06:31.083Z,48.00
2018-07-02T15:08:59.920Z,48.10
2018-07-02T15:11:28.352Z,49.30
2018-07-02T15:13:56.803Z,49.00
2018-07-02T15:16:25.237Z,49.30
2018-07-02T15:18:53.692Z,49.00
2018-07-02T15:21:22.247Z,49.40
2018-07-02T15:23:50.602Z,49.40
2018-07-02T15:26:19.695Z,49.70
2018-07-02T15:28:48.107Z,50.10
2018-07-02T15:31:16.539Z,49.30
2018-07-02T15:33:44.962Z,50.00
2018-07-02T15:36:13.553Z,50.40
2018-07-02T15:38:42.084Z,50.60
2018-07-02T15:41:10.567Z,50.30
2018-07-02T15:43:39.018Z,51.30
2018-07-02T15:46:07.472Z,51.10
2018-07-02T15:48:35.991Z,50.90
2018-07-02T15:51:04.412Z,51.10
2018-07-02T15:53:32.783Z,51.10
2018-07-02T15:56:01.254Z,50.90
2018-07-02T15:58:29.637Z,51.00
2018-07-02T16:00:58.156Z,51.60
2018-07-02T16:03:26.540Z,52.30
2018-07-02T16:05:54.923Z,51.90
2018-07-02T16:08:23.315Z,52.10
2018-07-02T16:10:51.700Z,52.10
2018-07-02T16:13:20.076Z,52.20
2018-07-02T16:15:48.455Z,52.30
2018-07-02T16:18:16.855Z,52.50
2018-07-02T16:20:45.379Z,52.60
2018-07-02T16:23:13.866Z,52.20
2018-07-02T16:25:52.648Z,52.20
2018-07-02T16:28:35.347Z,52.40
2018-07-02T16:31:03.765Z,52.20
2018-07-02T16:33:35.964Z,52.60
2018-07-02T16:36:14.736Z,53.50
2018-07-02T16:38:48.071Z,53.80
2018-07-02T16:41:16.823Z,53.30
2018-07-02T16:43:45.440Z,53.60
2018-07-02T16:46:14.130Z,53.30
2018-07-02T16:48:42.750Z,53.50
2018-07-02T16:51:11.316Z,54.10
2018-07-02T16:53:39.872Z,54.30
2018-07-02T16:56:08.395Z,54.00
2018-07-02T16:58:37.060Z,54.60
2018-07-02T17:01:08.661Z,54.80
2018-07-02T17:03:37.254Z,55.30
2018-07-02T17:08:33.885Z,55.40
2018-07-02T17:11:02.434Z,55.40
2018-07-02T17:13:31.189Z,55.40
2018-07-02T17:21:01.025Z,55.00
2018-07-02T17:23:29.690Z,55.10
2018-07-02T17:25:58.717Z,54.90
2018-07-02T17:28:27.296Z,54.90
2018-07-02T17:30:55.824Z,55.60
2018-07-02T17:33:24.540Z,55.40
2018-07-02T17:35:53.164Z,55.90
2018-07-02T17:38:22.861Z,56.10
2018-07-02T17:40:51.493Z,56.50
2018-07-02T17:43:19.999Z,56.10
2018-07-02T17:45:48.698Z,56.10
2018-07-02T17:48:17.252Z,56.20
2018-07-02T17:50:45.748Z,56.40
2018-07-02T17:53:14.347Z,56.90
2018-07-02T17:55:42.793Z,57.30
2018-07-02T17:58:11.214Z,57.00
2018-07-02T18:00:39.756Z,57.10
2018-07-02T18:03:08.202Z,57.40
2018-07-02T18:05:36.611Z,58.00
2018-07-02T18:08:05.280Z,57.40
2018-07-02T18:10:34.086Z,57.30
2018-07-02T18:13:02.554Z,57.40
2018-07-02T18:15:31.002Z,57.20
2018-07-02T18:17:59.434Z,57.50
2018-07-02T18:20:28.039Z,57.70
2018-07-02T18:22:56.650Z,57.60
2018-07-02T18:25:25.132Z,57.70
2018-07-02T18:27:53.579Z,57.80
2018-07-02T18:30:22.174Z,57.90
2018-07-02T18:32:50.803Z,58.10
2018-07-02T18:35:19.557Z,58.50
2018-07-02T18:37:48.043Z,58.50
2018-07-02T18:40:16.567Z,58.70
2018-07-02T18:42:45.143Z,59.10
2018-07-02T18:45:13.674Z,59.40
2018-07-02T18:47:42.178Z,59.50
2018-07-02T18:50:10.840Z,59.90
2018-07-02T18:52:39.591Z,60.00
2018-07-02T18:55:08.276Z,60.00
2018-07-02T18:57:37.179Z,60.40
2018-07-02T19:00:06.423Z,60.60
2018-07-02T19:02:35.035Z,60.40
2018-07-02T19:05:03.751Z,60.80
2018-07-02T19:07:32.614Z,60.90
2018-07-02T19:10:01.817Z,61.10
2018-07-02T19:12:30.267Z,61.10
2018-07-02T19:14:58.863Z,61.50
2018-07-02T19:17:27.678Z,61.70
2018-07-02T19:19:56.415Z,62.30
2018-07-02T19:22:25.250Z,64.00
2018-07-02T19:24:53.818Z,64.40
2018-07-02T19:27:22.256Z,64.60
2018-07-02T19:29:50.837Z,65.90
2018-07-02T19:32:19.325Z,65.70
2018-07-02T19:34:49.105Z,66.50
2018-07-02T19:37:17.627Z,67.20
2018-07-02T19:39:46.210Z,67.30
2018-07-02T19:42:14.766Z,67.40
2018-07-02T19:44:43.210Z,67.60
2018-07-02T19:47:11.872Z,68.40
2018-07-02T19:49:40.414Z,68.50
2018-07-02T19:52:08.909Z,69.40
2018-07-02T19:54:37.556Z,70.50
2018-07-02T19:57:06.377Z,70.10
2018-07-02T19:59:34.954Z,70.90
2018-07-02T20:02:03.429Z,71.40
2018-07-02T20:04:31.835Z,72.40
2018-07-02T20:07:00.631Z,72.60
2018-07-02T20:09:28.995Z,73.10
2018-07-02T20:11:57.574Z,72.80
2018-07-02T20:14:25.971Z,72.50
2018-07-02T20:16:54.335Z,73.30
2018-07-02T20:19:22.722Z,73.70
2018-07-02T20:21:51.271Z,73.30
2018-07-02T20:24:19.703Z,73.70
2018-07-02T20:26:48.053Z,73.80
2018-07-02T20:29:17.049Z,74.90
2018-07-02T20:31:45.569Z,75.70
2018-07-02T20:34:14.043Z,76.30
2018-07-02T20:36:42.498Z,77.00
2018-07-02T20:39:11.843Z,77.30
2018-07-02T20:41:40.307Z,78.40
2018-07-02T20:44:10.443Z,79.40
2018-07-02T20:46:39.227Z,79.10
2018-07-02T20:49:07.660Z,80.10
2018-07-02T20:51:36.155Z,80.60
2018-07-02T20:54:04.710Z,80.60
2018-07-02T20:56:33.249Z,80.80
2018-07-02T20:59:01.649Z,81.30
2018-07-02T21:01:30.031Z,81.70
2018-07-02T21:03:58.464Z,82.20
2018-07-02T21:06:27.082Z,83.00
2018-07-02T21:08:55.496Z,83.30
2018-07-02T21:11:23.856Z,83.50
2018-07-02T21:13:52.250Z,83.30
2018-07-02T21:16:20.596Z,83.40
2018-07-02T21:18:48.962Z,83.30
2018-07-02T21:21:17.399Z,83.30
2018-07-02T21:23:45.758Z,83.20
2018-07-02T21:26:14.140Z,83.80
2018-07-02T21:28:42.651Z,84.20
2018-07-02T21:31:11.263Z,84.20
2018-07-02T21:36:07.717Z,84.10
2018-07-02T21:38:36.136Z,84.10
2018-07-02T21:41:04.590Z,84.00
2018-07-02T21:43:32.930Z,84.70
2018-07-02T21:46:01.345Z,84.50
2018-07-02T21:48:29.789Z,85.10
2018-07-02T21:50:58.202Z,85.10
2018-07-02T21:53:26.652Z,85.40
2018-07-02T21:55:55.018Z,85.30
2018-07-02T21:58:23.639Z,84.90
2018-07-02T22:00:52.040Z,84.90
2018-07-02T22:03:20.502Z,84.90
2018-07-02T22:05:48.890Z,86.00
2018-07-02T22:08:17.307Z,86.40
2018-07-02T22:10:45.704Z,86.90
2018-07-02T22:13:14.107Z,87.20
2018-07-02T22:15:43.703Z,87.10
2018-07-02T22:18:12.099Z,87.40
2018-07-02T22:20:40.503Z,88.00
2018-07-02T22:23:08.869Z,88.30
2018-07-02T22:25:37.244Z,88.80
2018-07-02T22:28:05.726Z,88.30
2018-07-02T22:30:34.110Z,88.30
2018-07-02T22:33:02.539Z,89.10
2018-07-02T22:35:30.956Z,88.50
2018-07-02T22:37:59.343Z,88.70
2018-07-02T22:40:27.775Z,88.60
2018-07-02T22:42:56.151Z,88.60
2018-07-02T22:45:24.556Z,89.80
2018-07-02T22:47:52.993Z,90.70
2018-07-02T22:50:21.371Z,91.20
2018-07-02T22:52:49.725Z,91.40
2018-07-02T22:55:18.093Z,91.80
2018-07-02T22:57:46.494Z,91.70
2018-07-02T23:00:14.852Z,91.80
2018-07-02T23:02:43.232Z,91.60
2018-07-02T23:05:11.627Z,91.70
2018-07-02T23:07:40.000Z,91.70
2018-07-02T23:10:08.364Z,92.20
2018-07-02T23:12:36.782Z,92.40
2018-07-02T23:15:05.260Z,92.10
2018-07-02T23:17:33.640Z,92.60
2018-07-02T23:20:01.997Z,93.00
2018-07-02T23:22:45.780Z,93.00
2018-07-02T23:25:14.150Z,92.90
2018-07-02T23:30:10.606Z,93.70
2018-07-02T23:32:38.967Z,94.00
2018-07-02T23:35:07.412Z,94.20
2018-07-02T23:37:35.806Z,94.10
2018-07-02T23:40:04.211Z,94.20
2018-07-02T23:42:32.583Z,93.80
2018-07-02T23:45:00.951Z,94.80
2018-07-02T23:47:29.313Z,95.00
2018-07-02T23:49:57.684Z,95.00
2018-07-02T23:52:26.184Z,95.50
2018-07-02T23:54:54.565Z,95.90
2018-07-02T23:57:22.933Z,95.40
2018-07-02T23:59:51.294Z,95.80
